Time;durP1;ratioP1;P1;durP2;ratioP2;P2;SDS_P1;SDS_P2;PMS_P1;PMS_P2;Temp;Humidity;BMP_temperature;BMP_pressure;BME280_temperature;BME280_humidity;BME280_pressure;Samples;Min_cycle;Max_cycle;Signal;HPM_P1;HPM_P2
2021/12/02 00:01:18;;;;;;;15.60;6.40;;;6.10;99.90;;;;;;5014235;28;20053;-78
2021/12/02 00:03:45;;;;;;;15.27;5.73;;;6.20;99.90;;;;;;5031019;28;20022;-79
2021/12/02 00:06:13;;;;;;;13.30;4.50;;;6.20;99.90;;;;;;5023765;28;20033;-77
2021/12/02 00:08:40;;;;;;;11.57;4.07;;;6.20;99.90;;;;;;5056696;28;20036;-78
2021/12/02 00:11:07;;;;;;;12.90;4.00;;;6.20;99.90;;;;;;5058209;28;20068;-77
2021/12/02 00:21:31;;;;;;;11.83;4.90;;;6.20;99.90;;;;;;5048062;28;20470;-78
2021/12/02 00:24:05;;;;;;;11.33;3.87;;;6.30;99.90;;;;;;5035449;28;20447;-78
2021/12/02 00:26:33;;;;;;;17.70;6.37;;;6.30;99.90;;;;;;5034471;28;20392;-80
2021/12/02 00:29:02;;;;;;;12.80;4.40;;;6.30;99.90;;;;;;5043045;28;20067;-79
2021/12/02 00:31:30;;;;;;;13.33;2.90;;;6.30;99.90;;;;;;5088100;28;20029;-78
2021/12/02 00:34:02;;;;;;;13.83;3.00;;;6.30;99.90;;;;;;5055054;28;20435;-78
2021/12/02 00:36:33;;;;;;;9.25;3.15;;;6.20;99.90;;;;;;5056308;28;20029;-79
2021/12/02 00:39:05;;;;;;;11.03;2.53;;;6.30;99.90;;;;;;5056569;28;20029;-79
2021/12/02 00:41:31;;;;;;;11.77;2.03;;;6.20;99.90;;;;;;5056018;28;20025;-78
2021/12/02 00:43:58;;;;;;;10.67;2.57;;;6.20;99.90;;;;;;5021923;28;20025;-78
2021/12/02 00:46:31;;;;;;;12.93;3.50;;;6.20;99.90;;;;;;5037782;28;20520;-78
2021/12/02 00:49:01;;;;;;;11.07;3.75;;;6.20;99.90;;;;;;5054408;28;20037;-79
2021/12/02 00:51:27;;;;;;;11.87;4.73;;;6.30;99.90;;;;;;5055855;28;20116;-79
2021/12/02 00:53:55;;;;;;;9.50;2.73;;;6.30;99.90;;;;;;5055280;28;20040;-79
2021/12/02 00:56:24;;;;;;;11.20;2.97;;;6.30;99.90;;;;;;5054579;28;20071;-80
2021/12/02 00:58:51;;;;;;;15.57;5.10;;;6.30;99.90;;;;;;5055311;28;20025;-78
2021/12/02 01:01:19;;;;;;;8.33;2.50;;;6.20;99.90;;;;;;5055662;28;20121;-78
2021/12/02 01:03:48;;;;;;;11.20;3.20;;;6.20;99.90;;;;;;5059100;28;20029;-80
2021/12/02 01:06:14;;;;;;;9.93;3.00;;;6.20;99.90;;;;;;5058549;28;20028;-78
2021/12/02 01:08:40;;;;;;;12.43;3.23;;;6.20;99.90;;;;;;5057022;28;20788;-80
2021/12/02 01:11:07;;;;;;;8.30;2.30;;;6.20;99.90;;;;;;5055139;28;20037;-79
2021/12/02 01:13:33;;;;;;;7.23;2.40;;;6.20;99.90;;;;;;5056607;28;20578;-81
2021/12/02 01:16:00;;;;;;;7.20;1.90;;;6.20;99.90;;;;;;5056096;28;20033;-76
2021/12/02 01:18:26;;;;;;;9.80;2.60;;;6.10;99.90;;;;;;5055452;28;20029;-78
2021/12/02 01:20:53;;;;;;;9.57;2.53;;;6.10;99.90;;;;;;5054318;28;20024;-79
2021/12/02 01:23:21;;;;;;;10.53;3.03;;;6.10;99.90;;;;;;5054829;28;20132;-79
2021/12/02 01:26:04;;;;;;;12.00;2.00;;;6.10;99.90;;;;;;5035494;28;20116;-78
2021/12/02 01:28:30;;;;;;;13.57;2.13;;;6.10;99.90;;;;;;5033066;28;20075;-78
2021/12/02 01:30:57;;;;;;;5.53;1.67;;;6.10;99.90;;;;;;5036057;28;20044;-78
2021/12/02 01:33:26;;;;;;;7.33;1.87;;;6.10;99.90;;;;;;5025854;28;20033;-78
2021/12/02 01:35:55;;;;;;;5.33;1.43;;;6.10;99.90;;;;;;5055874;28;20103;-79
2021/12/02 01:38:24;;;;;;;10.33;1.83;;;6.10;99.90;;;;;;5056472;28;20029;-79
2021/12/02 01:40:51;;;;;;;9.93;1.40;;;6.10;99.90;;;;;;5056051;28;20052;-77
2021/12/02 01:43:19;;;;;;;8.53;1.47;;;6.10;99.90;;;;;;5055788;28;20033;-79
2021/12/02 01:45:45;;;;;;;7.67;1.47;;;6.10;99.90;;;;;;5057066;28;20063;-79
2021/12/02 01:48:19;;;;;;;11.27;2.20;;;6.00;99.90;;;;;;5058119;28;20029;-78
2021/12/02 01:50:59;;;;;;;7.30;1.10;;;6.00;99.90;;;;;;5056964;28;20775;-78
2021/12/02 01:53:35;;;;;;;9.73;2.10;;;6.00;99.90;;;;;;5053989;28;20026;-79
2021/12/02 01:56:12;;;;;;;6.03;1.53;;;6.00;99.90;;;;;;5055139;28;20029;-79
2021/12/02 01:58:46;;;;;;;7.00;1.50;;;6.10;99.90;;;;;;5055049;28;20504;-78
2021/12/02 02:01:34;;;;;;;9.07;2.10;;;6.10;99.90;;;;;;5052399;28;20491;-79
2021/12/02 02:04:00;;;;;;;11.10;2.07;;;6.10;99.90;;;;;;5038835;28;20022;-78
2021/12/02 02:06:44;;;;;;;6.20;1.13;;;6.10;99.90;;;;;;5037134;28;20030;-79
2021/12/02 02:09:11;;;;;;;11.87;1.60;;;6.00;99.90;;;;;;5051279;28;20028;-79
2021/12/02 02:11:37;;;;;;;8.97;1.90;;;6.00;99.90;;;;;;5028365;28;20029;-80
2021/12/02 02:14:06;;;;;;;7.10;1.30;;;6.10;99.90;;;;;;5050409;28;20088;-78
2021/12/02 02:16:32;;;;;;;9.27;1.53;;;6.10;99.90;;;;;;5035745;28;20037;-79
2021/12/02 02:18:58;;;;;;;8.70;1.47;;;6.10;99.90;;;;;;5034427;28;20408;-79
2021/12/02 02:21:24;;;;;;;5.40;1.53;;;6.00;99.90;;;;;;5036166;28;20029;-79
2021/12/02 02:24:00;;;;;;;8.40;1.53;;;6.10;99.90;;;;;;5038016;28;20033;-79
2021/12/02 02:26:33;;;;;;;5.57;1.03;;;6.10;99.90;;;;;;5034426;28;20037;-79
2021/12/02 02:28:59;;;;;;;9.05;1.40;;;6.10;99.90;;;;;;5018011;28;20041;-79
2021/12/02 02:31:27;;;;;;;7.23;1.67;;;6.10;99.90;;;;;;5035670;28;20029;-79
2021/12/02 02:33:54;;;;;;;6.27;1.20;;;6.10;99.90;;;;;;5036962;28;20501;-79
2021/12/02 02:36:25;;;;;;;7.73;1.30;;;6.10;99.90;;;;;;5034225;28;20029;-79
2021/12/02 02:38:58;;;;;;;4.30;1.07;;;6.10;99.90;;;;;;5037935;28;20029;-79
2021/12/02 02:41:33;;;;;;;6.80;0.97;;;6.20;99.90;;;;;;5058585;28;20029;-78
2021/12/02 02:44:00;;;;;;;4.37;0.90;;;6.20;99.90;;;;;;5041430;28;20359;-79
2021/12/02 02:46:32;;;;;;;6.63;1.07;;;6.10;99.90;;;;;;5038557;28;20053;-78
2021/12/02 02:49:00;;;;;;;5.32;1.10;;;6.10;99.90;;;;;;5039322;28;20030;-78
2021/12/02 02:51:29;;;;;;;3.13;0.70;;;6.10;99.90;;;;;;5042080;28;20033;-78
2021/12/02 02:53:56;;;;;;;4.00;0.50;;;6.10;99.80;;;;;;5041920;28;20040;-81
2021/12/02 02:56:27;;;;;;;3.33;0.60;;;6.10;99.50;;;;;;5044294;28;20033;-78
2021/12/02 03:01:48;;;;;;;3.83;0.50;;;6.00;99.40;;;;;;5041706;28;20047;-79
2021/12/02 03:04:28;;;;;;;5.50;0.80;;;6.00;99.50;;;;;;5053344;28;20022;-78
2021/12/02 03:17:11;;;;;;;5.07;0.77;;;5.80;99.60;;;;;;5074930;28;20052;-78
2021/12/02 03:19:42;;;;;;;5.03;1.23;;;5.80;99.70;;;;;;5075022;28;20093;-80
2021/12/02 03:22:11;;;;;;;6.00;1.53;;;5.70;99.80;;;;;;5067311;28;20029;-78
2021/12/02 03:24:37;;;;;;;4.60;1.70;;;5.60;99.90;;;;;;5055856;28;20116;-80
2021/12/02 03:27:04;;;;;;;7.10;1.90;;;5.60;99.90;;;;;;5055545;28;20258;-79
2021/12/02 03:29:30;;;;;;;4.60;1.30;;;5.50;99.90;;;;;;5016263;28;20029;-79
2021/12/02 03:31:55;;;;;;;4.53;1.73;;;5.40;99.90;;;;;;5031331;28;20063;-78
2021/12/02 03:34:22;;;;;;;5.73;1.47;;;5.40;99.90;;;;;;5018439;28;20028;-78
2021/12/02 03:36:51;;;;;;;5.73;1.63;;;5.40;99.90;;;;;;5052522;28;20087;-79
2021/12/02 03:39:17;;;;;;;5.10;1.30;;;5.40;99.90;;;;;;5070104;28;20035;-78
2021/12/02 03:41:43;;;;;;;5.90;1.50;;;5.30;99.90;;;;;;5071218;28;20024;-78
2021/12/02 03:44:09;;;;;;;7.83;1.40;;;5.30;99.90;;;;;;5072253;28;20070;-78
2021/12/02 03:46:36;;;;;;;5.93;1.40;;;5.30;99.90;;;;;;5068760;28;20056;-78
2021/12/02 03:49:03;;;;;;;6.67;1.40;;;5.30;99.90;;;;;;5051337;28;20119;-79
2021/12/02 03:51:29;;;;;;;5.03;1.07;;;5.30;99.90;;;;;;5051682;28;20389;-78
2021/12/02 03:53:55;;;;;;;5.17;1.20;;;5.30;99.90;;;;;;5051154;28;20025;-80
2021/12/02 03:56:21;;;;;;;7.83;1.67;;;5.30;99.90;;;;;;5052865;28;20104;-79
2021/12/02 03:58:48;;;;;;;6.87;1.10;;;5.30;99.90;;;;;;5044416;28;20026;-79
2021/12/02 04:01:15;;;;;;;6.17;1.23;;;5.30;99.90;;;;;;5038076;28;20107;-79
2021/12/02 04:03:41;;;;;;;5.27;1.37;;;5.40;99.90;;;;;;5032094;28;20430;-80
2021/12/02 04:06:08;;;;;;;4.97;1.60;;;5.30;99.90;;;;;;5031900;28;20346;-77
2021/12/02 04:08:45;;;;;;;5.63;1.03;;;5.30;99.90;;;;;;5032006;28;20056;-78
2021/12/02 04:14:46;;;;;;;9.03;1.33;;;5.20;99.90;;;;;;5032029;28;20036;-78
2021/12/02 04:16:53;;;;;;;5.03;1.40;;;5.20;99.90;;;;;;5036062;28;20112;-79
2021/12/02 04:19:23;;;;;;;4.30;1.40;;;5.20;99.90;;;;;;5073253;28;20036;-78
2021/12/02 04:21:49;;;;;;;7.40;1.10;;;5.10;99.90;;;;;;5078016;28;20020;-79
2021/12/02 04:24:15;;;;;;;7.13;1.20;;;5.00;99.90;;;;;;5060102;28;20028;-78
2021/12/02 04:26:42;;;;;;;4.03;1.33;;;5.00;99.90;;;;;;5037464;28;20033;-78
2021/12/02 04:29:09;;;;;;;9.07;1.33;;;5.00;99.90;;;;;;5022852;28;20033;-78
2021/12/02 04:31:35;;;;;;;5.40;1.63;;;5.00;99.90;;;;;;5041063;28;20072;-79
2021/12/02 04:34:01;;;;;;;8.83;1.00;;;4.90;99.90;;;;;;5036475;28;20069;-80
2021/12/02 04:36:26;;;;;;;5.50;0.90;;;4.90;99.90;;;;;;5056374;28;20039;-78
2021/12/02 04:38:52;;;;;;;6.47;1.20;;;4.90;99.90;;;;;;5061787;28;20036;-80
2021/12/02 04:41:18;;;;;;;4.47;0.90;;;4.90;99.90;;;;;;5034818;28;20061;-78
2021/12/02 04:43:44;;;;;;;5.53;1.00;;;4.80;99.90;;;;;;5032796;28;20022;-79
2021/12/02 04:46:10;;;;;;;7.10;0.80;;;4.90;99.90;;;;;;5034726;28;20057;-78
2021/12/02 04:48:35;;;;;;;5.57;1.00;;;4.90;99.90;;;;;;5044674;28;20039;-79
2021/12/02 04:51:03;;;;;;;4.07;0.80;;;4.90;99.90;;;;;;5051902;28;20029;-78
2021/12/02 04:53:28;;;;;;;1.97;0.60;;;4.80;99.90;;;;;;5054967;28;20029;-78
2021/12/02 04:55:54;;;;;;;6.03;0.70;;;4.90;99.90;;;;;;5057537;28;20039;-78
2021/12/02 04:58:20;;;;;;;4.77;0.60;;;4.90;99.90;;;;;;5040042;28;20028;-78
2021/12/02 05:00:46;;;;;;;3.97;0.50;;;4.90;99.90;;;;;;5047449;28;20121;-80
2021/12/02 05:03:11;;;;;;;3.87;0.50;;;4.90;99.90;;;;;;5018474;28;20030;-78
2021/12/02 05:05:37;;;;;;;3.40;0.40;;;4.80;99.90;;;;;;5035135;28;20031;-79
2021/12/02 05:08:04;;;;;;;2.93;0.40;;;4.80;99.90;;;;;;5037362;28;20037;-79
2021/12/02 05:10:30;;;;;;;5.47;0.60;;;4.90;99.90;;;;;;5031832;28;20033;-79
2021/12/02 05:12:56;;;;;;;5.63;0.50;;;4.90;99.90;;;;;;5053217;28;20142;-78
2021/12/02 05:15:21;;;;;;;3.87;0.47;;;4.90;99.90;;;;;;5054555;28;20059;-78
2021/12/02 05:17:47;;;;;;;5.20;0.50;;;4.90;99.90;;;;;;5036756;28;20029;-80
2021/12/02 05:20:13;;;;;;;5.40;0.53;;;4.90;99.90;;;;;;5053012;28;20385;-78
2021/12/02 05:22:38;;;;;;;3.10;0.80;;;4.90;99.90;;;;;;5036979;28;20055;-79
2021/12/02 05:25:05;;;;;;;6.83;0.70;;;4.90;99.90;;;;;;5038811;28;20038;-78
2021/12/02 05:27:31;;;;;;;6.77;0.97;;;4.90;99.90;;;;;;5033363;28;20123;-78
2021/12/02 05:29:56;;;;;;;6.83;0.90;;;4.80;99.90;;;;;;5016441;28;20500;-79
2021/12/02 05:32:22;;;;;;;6.33;1.13;;;4.80;99.90;;;;;;5048968;28;20514;-78
2021/12/02 05:34:49;;;;;;;5.63;1.30;;;4.80;99.90;;;;;;5053234;28;20017;-77
2021/12/02 05:37:15;;;;;;;6.77;1.03;;;4.80;99.90;;;;;;5052775;28;20021;-77
2021/12/02 05:39:42;;;;;;;3.00;0.97;;;4.80;99.90;;;;;;5064533;28;20025;-79
2021/12/02 05:42:08;;;;;;;6.93;1.30;;;4.80;99.90;;;;;;5073522;28;20035;-78
2021/12/02 05:44:33;;;;;;;4.80;1.03;;;4.80;99.90;;;;;;5039915;28;20033;-79
2021/12/02 05:46:59;;;;;;;3.63;0.70;;;4.80;99.90;;;;;;5048062;28;20115;-79
2021/12/02 05:49:25;;;;;;;4.87;1.07;;;4.80;99.90;;;;;;5033217;28;20076;-78
2021/12/02 05:51:50;;;;;;;3.33;0.70;;;4.80;99.90;;;;;;5032560;28;20466;-80
2021/12/02 05:54:16;;;;;;;3.93;0.60;;;4.80;99.90;;;;;;5016524;28;20052;-79
2021/12/02 05:56:42;;;;;;;4.57;0.80;;;4.80;99.90;;;;;;5046975;28;20021;-79
2021/12/02 05:59:08;;;;;;;7.07;0.97;;;4.70;99.90;;;;;;5036026;28;20040;-77
2021/12/02 06:01:34;;;;;;;7.50;0.90;;;4.60;99.90;;;;;;5053449;28;20427;-78
2021/12/02 06:04:01;;;;;;;5.97;1.60;;;4.60;99.90;;;;;;5073514;28;20103;-79
2021/12/02 06:06:27;;;;;;;5.33;1.40;;;4.60;99.90;;;;;;5056321;28;20032;-78
2021/12/02 06:08:53;;;;;;;6.13;0.93;;;4.70;99.90;;;;;;5036632;28;20038;-79
2021/12/02 06:11:19;;;;;;;5.33;1.20;;;4.70;99.90;;;;;;5037571;28;20072;-79
2021/12/02 06:13:46;;;;;;;7.13;1.20;;;4.70;99.90;;;;;;5052540;28;20385;-77
2021/12/02 06:16:13;;;;;;;4.30;1.60;;;4.80;99.90;;;;;;5051508;28;20039;-77
2021/12/02 06:18:39;;;;;;;6.77;1.93;;;4.90;99.90;;;;;;5053408;28;20037;-77
2021/12/02 06:21:05;;;;;;;5.87;1.57;;;4.90;99.90;;;;;;5052764;28;20021;-77
2021/12/02 06:23:30;;;;;;;6.43;1.97;;;5.00;99.90;;;;;;5049242;28;20040;-77
2021/12/02 06:25:56;;;;;;;5.57;2.10;;;5.00;99.90;;;;;;5032753;28;20038;-78
2021/12/02 06:28:22;;;;;;;7.27;2.20;;;5.00;99.90;;;;;;5065272;28;20025;-77
2021/12/02 06:30:48;;;;;;;6.57;1.87;;;5.00;99.90;;;;;;5066629;28;20037;-77
2021/12/02 06:33:14;;;;;;;6.10;1.50;;;5.00;99.90;;;;;;5040480;28;20571;-78
2021/12/02 06:35:40;;;;;;;5.70;1.90;;;4.90;99.90;;;;;;5052277;28;20040;-77
2021/12/02 06:38:08;;;;;;;3.97;1.80;;;4.90;99.90;;;;;;5053350;28;20062;-78
2021/12/02 06:40:35;;;;;;;3.87;1.50;;;4.80;99.90;;;;;;5055178;28;20021;-77
2021/12/02 06:43:02;;;;;;;3.33;1.10;;;4.80;99.90;;;;;;5057313;28;20031;-77
2021/12/02 06:45:28;;;;;;;4.10;1.23;;;4.80;99.90;;;;;;5033617;28;20056;-77
2021/12/02 06:47:59;;;;;;;4.23;1.80;;;4.80;99.90;;;;;;5051447;28;20095;-78
2021/12/02 06:50:25;;;;;;;9.40;1.80;;;4.70;99.90;;;;;;5035745;28;20034;-77
2021/12/02 06:52:52;;;;;;;4.17;1.70;;;4.80;99.90;;;;;;5037225;28;20026;-79
2021/12/02 06:55:18;;;;;;;4.70;1.60;;;4.80;99.90;;;;;;5037964;28;20049;-77
2021/12/02 06:57:44;;;;;;;3.73;1.33;;;4.90;99.90;;;;;;5035384;28;20053;-78
2021/12/02 07:00:13;;;;;;;3.63;1.50;;;4.90;99.90;;;;;;5063076;28;20063;-78
2021/12/02 07:02:39;;;;;;;6.47;1.50;;;4.90;99.90;;;;;;5076574;28;20040;-78
2021/12/02 07:05:07;;;;;;;3.03;1.00;;;4.90;99.90;;;;;;5022708;28;20033;-77
2021/12/02 07:07:36;;;;;;;5.30;1.40;;;4.90;99.90;;;;;;5032705;28;20095;-77
2021/12/02 07:10:05;;;;;;;5.80;1.27;;;4.90;99.90;;;;;;5050579;28;20026;-78
2021/12/02 07:12:34;;;;;;;2.30;0.80;;;4.90;99.90;;;;;;5050778;28;20029;-79
2021/12/02 07:15:15;;;;;;;8.53;1.10;;;4.80;99.90;;;;;;5035165;28;20061;-81
2021/12/02 07:17:41;;;;;;;2.30;0.70;;;4.70;99.90;;;;;;5049151;28;20055;-78
2021/12/02 07:20:08;;;;;;;6.87;1.37;;;4.60;99.90;;;;;;5022730;28;20060;-79
2021/12/02 07:22:34;;;;;;;1.07;0.70;;;4.50;99.90;;;;;;5062935;28;20025;-78
2021/12/02 07:24:59;;;;;;;3.50;0.80;;;4.50;99.90;;;;;;5038885;28;20465;-79
2021/12/02 07:27:25;;;;;;;3.60;1.40;;;4.50;99.90;;;;;;5054687;28;20025;-77
2021/12/02 07:29:50;;;;;;;3.03;0.90;;;4.50;99.90;;;;;;5018153;28;20357;-78
2021/12/02 07:32:16;;;;;;;4.00;1.47;;;4.50;99.90;;;;;;5050328;28;20528;-77
2021/12/02 07:34:44;;;;;;;3.37;1.40;;;4.50;99.90;;;;;;5047194;28;20092;-77
2021/12/02 07:37:15;;;;;;;5.40;2.40;;;4.60;99.90;;;;;;5054158;28;20022;-78
2021/12/02 07:39:41;;;;;;;4.07;2.80;;;4.70;99.90;;;;;;5051133;28;20377;-77
2021/12/02 07:42:07;;;;;;;3.30;2.47;;;4.80;99.90;;;;;;5050269;28;20080;-78
2021/12/02 07:44:36;;;;;;;7.33;4.60;;;4.80;99.90;;;;;;5050330;28;20094;-78
2021/12/02 07:47:05;;;;;;;5.43;3.87;;;4.80;99.90;;;;;;5048992;28;20045;-80
2021/12/02 07:49:31;;;;;;;7.27;3.30;;;4.90;99.90;;;;;;5067175;28;20022;-80
2021/12/02 07:52:00;;;;;;;5.53;3.50;;;4.90;99.90;;;;;;5029873;28;20063;-79
2021/12/02 07:54:27;;;;;;;6.13;3.13;;;4.90;99.90;;;;;;5030036;28;20041;-78
2021/12/02 07:56:53;;;;;;;5.67;3.17;;;4.80;99.90;;;;;;5061972;28;20041;-81
2021/12/02 07:59:20;;;;;;;6.30;3.37;;;4.90;99.90;;;;;;5041774;28;20022;-79
2021/12/02 08:01:46;;;;;;;5.50;3.47;;;4.90;99.90;;;;;;5037297;28;20040;-77
2021/12/02 08:04:13;;;;;;;4.37;3.53;;;5.00;99.90;;;;;;5030012;28;20413;-77
2021/12/02 08:06:39;;;;;;;4.83;3.60;;;5.00;99.90;;;;;;5031164;28;20606;-78
2021/12/02 08:09:06;;;;;;;5.93;4.00;;;5.00;99.90;;;;;;5030669;28;20047;-81
2021/12/02 08:11:32;;;;;;;7.13;4.03;;;5.00;99.90;;;;;;5029766;28;20025;-79
2021/12/02 08:13:58;;;;;;;4.57;2.70;;;5.10;99.90;;;;;;5037924;28;20152;-78
2021/12/02 08:16:24;;;;;;;5.30;2.00;;;5.00;99.90;;;;;;5036760;28;20156;-81
2021/12/02 08:18:50;;;;;;;4.30;2.40;;;4.90;99.90;;;;;;5047773;28;20064;-81
2021/12/02 08:21:16;;;;;;;2.97;1.77;;;4.80;99.90;;;;;;5046052;28;20067;-79
2021/12/02 08:23:41;;;;;;;4.47;1.80;;;4.70;99.90;;;;;;5045975;28;20037;-79
2021/12/02 08:26:07;;;;;;;3.20;1.47;;;4.80;99.90;;;;;;5045294;28;20397;-81
2021/12/02 08:28:33;;;;;;;3.03;1.90;;;4.80;99.90;;;;;;5051660;28;20029;-78
2021/12/02 08:30:59;;;;;;;4.80;2.67;;;4.90;99.90;;;;;;5040229;28;20389;-79
2021/12/02 08:33:25;;;;;;;4.50;1.90;;;5.00;99.90;;;;;;5055571;28;20021;-79
2021/12/02 08:35:52;;;;;;;3.50;1.63;;;5.10;99.90;;;;;;5036251;28;20029;-79
2021/12/02 08:38:22;;;;;;;4.17;2.07;;;5.10;99.90;;;;;;5054567;28;20025;-79
2021/12/02 08:40:48;;;;;;;3.40;1.47;;;5.00;99.90;;;;;;5048687;28;20025;-79
2021/12/02 08:43:15;;;;;;;2.03;1.60;;;5.00;99.90;;;;;;5054724;28;20043;-79
2021/12/02 08:45:43;;;;;;;3.40;1.77;;;5.00;99.90;;;;;;5051683;28;20033;-78
2021/12/02 08:48:09;;;;;;;3.77;1.73;;;4.90;99.90;;;;;;5034097;28;20041;-79
2021/12/02 08:50:37;;;;;;;6.70;2.77;;;4.90;99.90;;;;;;5034180;28;20033;-79
2021/12/02 08:53:05;;;;;;;7.73;3.07;;;4.80;99.90;;;;;;5053486;28;20057;-78
2021/12/02 08:55:31;;;;;;;5.87;2.83;;;4.80;99.90;;;;;;5053231;28;20504;-78
2021/12/02 08:57:58;;;;;;;11.93;3.30;;;4.90;99.90;;;;;;5052548;28;20025;-78
2021/12/02 09:00:27;;;;;;;7.93;3.67;;;4.90;99.90;;;;;;5051940;28;20553;-79
2021/12/02 09:02:54;;;;;;;7.67;4.03;;;5.00;99.90;;;;;;5049871;28;20031;-78
2021/12/02 09:05:20;;;;;;;5.17;3.73;;;5.20;99.90;;;;;;5053382;28;20051;-78
2021/12/02 09:07:46;;;;;;;6.93;3.80;;;5.50;99.90;;;;;;5052484;28;20116;-78
2021/12/02 09:10:12;;;;;;;7.77;4.10;;;5.80;99.90;;;;;;5033684;28;20033;-83
2021/12/02 09:12:39;;;;;;;7.00;2.53;;;6.10;99.70;;;;;;5053408;28;20033;-79
2021/12/02 09:15:08;;;;;;;6.23;2.50;;;6.40;99.50;;;;;;5053735;28;20029;-79
2021/12/02 09:17:33;;;;;;;6.50;3.50;;;6.80;98.60;;;;;;5056072;28;20052;-80
2021/12/02 09:19:59;;;;;;;10.07;4.13;;;7.30;98.30;;;;;;5036356;28;20056;-79
2021/12/02 09:22:25;;;;;;;6.43;4.17;;;7.80;97.20;;;;;;5048903;28;20033;-79
2021/12/02 09:24:51;;;;;;;6.07;3.27;;;8.20;96.20;;;;;;5034131;28;20061;-78
2021/12/02 09:27:19;;;;;;;9.83;4.23;;;8.60;94.70;;;;;;5052842;28;20040;-79
2021/12/02 09:29:45;;;;;;;8.70;3.67;;;9.00;93.20;;;;;;5060064;28;20397;-79
2021/12/02 09:32:11;;;;;;;23.27;9.93;;;9.40;91.80;;;;;;5060649;28;20033;-80
2021/12/02 09:34:37;;;;;;;9.57;3.13;;;9.70;91.70;;;;;;5032547;28;20030;-79
2021/12/02 09:37:03;;;;;;;11.53;4.80;;;10.20;90.40;;;;;;5053272;28;20021;-79
2021/12/02 09:39:33;;;;;;;7.83;2.37;;;10.60;88.10;;;;;;5052258;28;20033;-80
2021/12/02 09:42:00;;;;;;;6.67;4.23;;;11.00;85.70;;;;;;5055072;28;20047;-79
2021/12/02 09:44:26;;;;;;;6.00;2.53;;;11.40;81.80;;;;;;5053607;28;20033;-81
2021/12/02 09:46:53;;;;;;;4.97;3.33;;;11.70;80.00;;;;;;5054369;28;20056;-80
2021/12/02 09:49:19;;;;;;;11.03;5.23;;;11.90;77.90;;;;;;5052248;28;20449;-81
2021/12/02 09:52:07;;;;;;;12.13;6.60;;;11.60;76.70;;;;;;5034459;28;20049;-79
2021/12/02 09:54:45;;;;;;;4.33;2.20;;;11.00;76.20;;;;;;5032763;28;20059;-79
2021/12/02 09:57:14;;;;;;;7.10;3.50;;;10.60;77.70;;;;;;5018375;28;20087;-79
2021/12/02 10:02:13;;;;;;;4.27;1.63;;;10.30;78.50;;;;;;5054483;28;20107;-78
2021/12/02 10:04:57;;;;;;;4.33;3.57;;;10.00;78.40;;;;;;5043018;28;20614;-80
2021/12/02 10:10:03;;;;;;;9.10;4.60;;;9.60;80.60;;;;;;5034108;28;20140;-80
2021/12/02 10:12:32;;;;;;;6.27;1.90;;;9.30;82.40;;;;;;5051204;28;20381;-78
2021/12/02 10:15:00;;;;;;;6.70;3.63;;;8.90;82.70;;;;;;5052982;28;20381;-80
2021/12/02 10:17:52;;;;;;;9.03;3.30;;;8.60;84.90;;;;;;5049273;28;20036;-79
2021/12/02 10:23:18;;;;;;;9.17;3.40;;;8.20;88.50;;;;;;5038871;28;20049;-79
2021/12/02 10:26:05;;;;;;;7.27;2.60;;;8.10;90.30;;;;;;5044018;28;20047;-80
2021/12/02 10:28:37;;;;;;;3.93;1.33;;;8.00;90.30;;;;;;5049871;28;20516;-77
2021/12/02 10:31:05;;;;;;;5.10;2.43;;;7.70;89.30;;;;;;5049105;28;20024;-80
2021/12/02 10:33:46;;;;;;;6.33;2.40;;;7.50;90.50;;;;;;5057437;28;20454;-79
2021/12/02 10:36:43;;;;;;;7.00;2.93;;;7.40;91.30;;;;;;5057112;28;20426;-80
2021/12/02 10:39:25;;;;;;;8.63;3.73;;;7.30;91.50;;;;;;5046721;28;20096;-82
2021/12/02 10:42:05;;;;;;;11.53;2.33;;;7.20;92.60;;;;;;5058394;28;20033;-79
2021/12/02 10:44:34;;;;;;;9.27;3.17;;;7.20;92.80;;;;;;5066552;28;20016;-82
2021/12/02 10:47:06;;;;;;;7.27;2.43;;;7.20;92.80;;;;;;5061047;28;20504;-79
2021/12/02 10:49:53;;;;;;;7.63;2.30;;;7.10;92.80;;;;;;5055628;28;20064;-80
2021/12/02 10:52:31;;;;;;;8.27;3.27;;;7.10;93.30;;;;;;5055581;28;20025;-80
2021/12/02 10:55:00;;;;;;;9.43;3.40;;;7.10;93.30;;;;;;5036316;28;20029;-79
2021/12/02 10:57:28;;;;;;;9.77;3.13;;;7.20;93.60;;;;;;5066538;28;20082;-81
2021/12/02 11:00:06;;;;;;;9.13;3.90;;;7.20;93.40;;;;;;5055446;28;20025;-79
2021/12/02 11:02:38;;;;;;;7.10;1.93;;;7.10;93.30;;;;;;5055856;28;20025;-82
2021/12/02 11:05:06;;;;;;;6.77;1.30;;;7.20;93.30;;;;;;5056493;28;20074;-79
2021/12/02 11:07:40;;;;;;;7.20;1.73;;;7.10;93.00;;;;;;5055824;28;20033;-81
2021/12/02 11:10:14;;;;;;;5.97;1.57;;;7.10;92.90;;;;;;5054801;28;20032;-80
2021/12/02 11:12:43;;;;;;;4.83;1.57;;;7.00;92.90;;;;;;5052501;28;20029;-80
2021/12/02 11:15:27;;;;;;;5.73;1.20;;;6.90;93.00;;;;;;5035416;28;20040;-80
2021/12/02 11:17:58;;;;;;;5.63;1.47;;;7.00;93.20;;;;;;5046724;28;20033;-81
2021/12/02 11:20:27;;;;;;;4.90;1.00;;;7.30;92.90;;;;;;5032427;28;20385;-79
2021/12/02 11:22:56;;;;;;;6.00;1.03;;;7.50;92.50;;;;;;5031180;28;20021;-80
2021/12/02 11:25:22;;;;;;;4.60;1.10;;;7.60;92.20;;;;;;5048176;28;20044;-81
2021/12/02 11:27:52;;;;;;;5.07;0.77;;;7.80;91.90;;;;;;5050910;28;20119;-79
2021/12/02 11:30:21;;;;;;;4.47;0.80;;;8.00;90.50;;;;;;5048325;28;20039;-79
2021/12/02 11:32:57;;;;;;;4.83;1.17;;;8.00;90.10;;;;;;5032922;28;20284;-80
2021/12/02 11:35:28;;;;;;;5.27;1.20;;;8.00;90.50;;;;;;5032599;28;20116;-80
2021/12/02 11:38:05;;;;;;;6.57;1.13;;;7.80;89.90;;;;;;5031033;28;20091;-79
2021/12/02 11:40:36;;;;;;;4.13;1.00;;;7.80;90.40;;;;;;5032424;28;20473;-80
2021/12/02 11:43:02;;;;;;;2.40;0.80;;;7.90;90.60;;;;;;5032834;28;20026;-80
2021/12/02 11:45:31;;;;;;;4.30;0.70;;;8.10;90.20;;;;;;5048131;28;20025;-81
2021/12/02 11:47:58;;;;;;;3.63;0.70;;;8.10;89.80;;;;;;5031681;28;20136;-79
2021/12/02 11:50:26;;;;;;;5.93;1.30;;;8.20;89.00;;;;;;5032698;28;20473;-79
2021/12/02 11:52:52;;;;;;;4.73;1.70;;;8.20;88.60;;;;;;5049226;28;20037;-78
2021/12/02 11:55:24;;;;;;;7.43;1.50;;;8.30;90.00;;;;;;5035712;28;20516;-79
2021/12/02 11:57:50;;;;;;;5.53;1.43;;;8.30;88.80;;;;;;5052335;28;20049;-78
2021/12/02 12:00:20;;;;;;;3.57;0.53;;;8.30;89.30;;;;;;5052059;28;20040;-80
2021/12/02 12:02:48;;;;;;;3.13;0.80;;;8.20;88.40;;;;;;5051241;28;20503;-80
2021/12/02 12:05:15;;;;;;;4.83;0.90;;;8.20;88.60;;;;;;5056216;28;20021;-79
2021/12/02 12:07:47;;;;;;;6.53;1.17;;;8.10;87.50;;;;;;5051038;28;20075;-79
2021/12/02 12:10:25;;;;;;;4.57;1.50;;;7.90;89.10;;;;;;5037181;28;20462;-79
2021/12/02 12:12:53;;;;;;;5.37;1.30;;;7.90;89.50;;;;;;5052986;28;20560;-78
2021/12/02 12:15:37;;;;;;;5.50;1.10;;;7.80;90.20;;;;;;5069127;28;20025;-79
2021/12/02 12:18:04;;;;;;;3.43;0.80;;;7.80;90.60;;;;;;5039059;28;20079;-80
2021/12/02 12:20:50;;;;;;;4.57;1.23;;;7.60;90.50;;;;;;5054198;28;20025;-78
2021/12/02 12:23:28;;;;;;;5.80;1.73;;;7.50;91.20;;;;;;5051188;28;20025;-80
2021/12/02 12:26:37;;;;;;;4.00;1.47;;;7.50;91.80;;;;;;5056748;28;20164;-79
2021/12/02 12:29:06;;;;;;;3.43;1.60;;;7.40;92.00;;;;;;5036822;28;20048;-81
2021/12/02 12:32:03;;;;;;;4.33;1.30;;;7.40;92.20;;;;;;5036995;28;20036;-82
2021/12/02 12:36:55;;;;;;;5.57;0.80;;;7.10;92.10;;;;;;5035340;28;20636;-79
2021/12/02 12:39:24;;;;;;;4.33;0.90;;;7.10;92.80;;;;;;5019350;28;20025;-79
2021/12/02 12:42:17;;;;;;;2.03;0.70;;;7.20;92.60;;;;;;5034692;28;20026;-80
2021/12/02 12:44:50;;;;;;;4.32;0.75;;;7.20;92.40;;;;;;5037041;28;20464;-78
2021/12/02 12:47:17;;;;;;;4.20;1.10;;;7.30;91.90;;;;;;5055298;28;20043;-79
2021/12/02 12:49:46;;;;;;;3.40;0.60;;;7.40;91.60;;;;;;5054001;28;20025;-79
2021/12/02 12:52:17;;;;;;;3.07;0.60;;;7.50;91.30;;;;;;5053836;28;20033;-79
2021/12/02 12:55:02;;;;;;;5.37;0.60;;;7.40;91.30;;;;;;5036964;28;20381;-80
2021/12/02 12:57:28;;;;;;;3.90;0.60;;;7.30;90.90;;;;;;5042623;28;20022;-79
2021/12/02 12:59:54;;;;;;;4.80;0.60;;;7.30;91.20;;;;;;5033485;28;20022;-80
2021/12/02 13:02:21;;;;;;;2.53;0.80;;;7.30;91.50;;;;;;5033856;28;20120;-78
2021/12/02 13:04:53;;;;;;;2.73;0.60;;;7.30;91.30;;;;;;5016989;28;20044;-79
2021/12/02 13:07:20;;;;;;;3.40;0.80;;;7.20;91.50;;;;;;5048720;28;20412;-79
2021/12/02 13:10:02;;;;;;;2.70;0.60;;;7.20;91.80;;;;;;5053296;28;20287;-80
2021/12/02 13:12:37;;;;;;;4.23;0.80;;;7.20;91.90;;;;;;5055041;28;20100;-80
2021/12/02 13:15:06;;;;;;;3.23;0.60;;;7.20;92.10;;;;;;5052814;28;20040;-80
2021/12/02 13:17:47;;;;;;;2.83;0.57;;;7.20;92.10;;;;;;5033029;28;20045;-79
2021/12/02 13:20:31;;;;;;;3.17;0.60;;;7.10;92.30;;;;;;5050464;28;20390;-80
2021/12/02 13:23:11;;;;;;;3.70;0.60;;;7.10;92.30;;;;;;5032721;28;20036;-81
2021/12/02 13:25:50;;;;;;;2.83;0.70;;;7.10;92.70;;;;;;5033559;28;20033;-79
2021/12/02 13:28:23;;;;;;;2.27;0.50;;;7.10;92.70;;;;;;5053019;28;20097;-79
2021/12/02 13:30:51;;;;;;;2.83;0.73;;;7.10;92.70;;;;;;5052326;28;20074;-80
2021/12/02 13:33:17;;;;;;;3.27;0.60;;;7.10;93.20;;;;;;5052704;28;20029;-79
2021/12/02 13:35:43;;;;;;;4.27;0.70;;;7.20;93.20;;;;;;5036019;28;20230;-78
2021/12/02 13:38:09;;;;;;;1.80;0.40;;;7.20;93.30;;;;;;5052493;28;20108;-79
2021/12/02 13:40:37;;;;;;;2.00;0.30;;;7.20;93.00;;;;;;5053307;28;20060;-79